sensor_id;sensor_type;location;lat;lon;timestamp;temperature;humidity
43858;DHT22;29507;51.284;5.758;2022-11-18T00:02:10;8.70;99.90
43858;DHT22;29507;51.284;5.758;2022-11-18T00:04:35;8.70;99.90
43858;DHT22;29507;51.284;5.758;2022-11-18T00:07:01;8.60;99.90
43858;DHT22;29507;51.284;5.758;2022-11-18T00:09:27;8.70;99.90
43858;DHT22;29507;51.284;5.758;2022-11-18T00:11:52;8.70;99.90
43858;DHT22;29507;51.284;5.758;2022-11-18T00:14:36;8.60;99.90
43858;DHT22;29507;51.284;5.758;2022-11-18T00:17:04;8.60;99.90
43858;DHT22;29507;51.284;5.758;2022-11-18T00:19:38;8.60;99.90
43858;DHT22;29507;51.284;5.758;2022-11-18T00:22:06;8.50;99.90
43858;DHT22;29507;51.284;5.758;2022-11-18T00:24:32;8.50;99.90
43858;DHT22;29507;51.284;5.758;2022-11-18T00:26:58;8.50;99.90
43858;DHT22;29507;51.284;5.758;2022-11-18T00:29:24;8.40;99.90
43858;DHT22;29507;51.284;5.758;2022-11-18T00:31:54;8.40;99.90
43858;DHT22;29507;51.284;5.758;2022-11-18T00:34:20;8.40;99.90
43858;DHT22;29507;51.284;5.758;2022-11-18T00:36:46;8.40;99.90
43858;DHT22;29507;51.284;5.758;2022-11-18T00:39:14;8.30;99.90
43858;DHT22;29507;51.284;5.758;2022-11-18T00:41:40;8.30;99.90
43858;DHT22;29507;51.284;5.758;2022-11-18T00:44:24;8.30;99.90
43858;DHT22;29507;51.284;5.758;2022-11-18T00:46:50;8.30;99.90
43858;DHT22;29507;51.284;5.758;2022-11-18T00:49:15;8.30;99.90
43858;DHT22;29507;51.284;5.758;2022-11-18T00:51:41;8.30;99.90
43858;DHT22;29507;51.284;5.758;2022-11-18T00:54:07;8.30;99.90
43858;DHT22;29507;51.284;5.758;2022-11-18T00:56:32;8.40;99.90
43858;DHT22;29507;51.284;5.758;2022-11-18T00:58:58;8.40;99.90
43858;DHT22;29507;51.284;5.758;2022-11-18T01:01:24;8.40;99.90
43858;DHT22;29507;51.284;5.758;2022-11-18T01:03:50;8.40;99.90
43858;DHT22;29507;51.284;5.758;2022-11-18T01:06:15;8.30;99.90
43858;DHT22;29507;51.284;5.758;2022-11-18T01:08:41;8.30;99.90
43858;DHT22;29507;51.284;5.758;2022-11-18T01:11:07;8.30;99.90
43858;DHT22;29507;51.284;5.758;2022-11-18T01:13:52;8.30;99.90
43858;DHT22;29507;51.284;5.758;2022-11-18T01:16:23;8.30;99.90
43858;DHT22;29507;51.284;5.758;2022-11-18T01:18:49;8.30;99.90
43858;DHT22;29507;51.284;5.758;2022-11-18T01:21:14;8.40;99.90
43858;DHT22;29507;51.284;5.758;2022-11-18T01:23:40;8.30;99.90
43858;DHT22;29507;51.284;5.758;2022-11-18T01:26:09;8.40;99.90
43858;DHT22;29507;51.284;5.758;2022-11-18T01:28:35;8.50;99.90
43858;DHT22;29507;51.284;5.758;2022-11-18T01:31:12;8.50;99.90
43858;DHT22;29507;51.284;5.758;2022-11-18T01:33:38;8.50;99.90
43858;DHT22;29507;51.284;5.758;2022-11-18T01:36:05;8.50;99.90
43858;DHT22;29507;51.284;5.758;2022-11-18T01:38:38;8.50;99.90
43858;DHT22;29507;51.284;5.758;2022-11-18T01:41:03;8.50;99.90
43858;DHT22;29507;51.284;5.758;2022-11-18T01:43:56;8.60;99.90
43858;DHT22;29507;51.284;5.758;2022-11-18T01:46:24;8.60;99.90
43858;DHT22;29507;51.284;5.758;2022-11-18T01:48:59;8.60;99.90
43858;DHT22;29507;51.284;5.758;2022-11-18T01:51:30;8.60;99.90
43858;DHT22;29507;51.284;5.758;2022-11-18T01:54:01;8.60;99.90
43858;DHT22;29507;51.284;5.758;2022-11-18T01:56:36;8.60;99.90
43858;DHT22;29507;51.284;5.758;2022-11-18T01:59:08;8.60;99.90
43858;DHT22;29507;51.284;5.758;2022-11-18T02:01:34;8.50;99.90
43858;DHT22;29507;51.284;5.758;2022-11-18T02:04:00;8.50;99.90
43858;DHT22;29507;51.284;5.758;2022-11-18T02:06:25;8.50;99.90
43858;DHT22;29507;51.284;5.758;2022-11-18T02:08:51;8.60;99.90
43858;DHT22;29507;51.284;5.758;2022-11-18T02:11:17;8.60;99.90
43858;DHT22;29507;51.284;5.758;2022-11-18T02:14:04;8.50;99.90
43858;DHT22;29507;51.284;5.758;2022-11-18T02:30:32;8.50;99.90
43858;DHT22;29507;51.284;5.758;2022-11-18T02:35:39;8.50;99.90
43858;DHT22;29507;51.284;5.758;2022-11-18T02:38:18;8.50;99.90
43858;DHT22;29507;51.284;5.758;2022-11-18T02:40:51;8.50;99.90
43858;DHT22;29507;51.284;5.758;2022-11-18T02:43:39;8.40;99.90
43858;DHT22;29507;51.284;5.758;2022-11-18T02:46:08;8.50;99.90
43858;DHT22;29507;51.284;5.758;2022-11-18T02:48:42;8.50;99.90
43858;DHT22;29507;51.284;5.758;2022-11-18T02:51:10;8.60;99.90
43858;DHT22;29507;51.284;5.758;2022-11-18T02:53:38;8.60;99.90
43858;DHT22;29507;51.284;5.758;2022-11-18T02:56:06;8.60;99.90
43858;DHT22;29507;51.284;5.758;2022-11-18T02:58:32;8.60;99.90
43858;DHT22;29507;51.284;5.758;2022-11-18T03:00:59;8.60;99.90
43858;DHT22;29507;51.284;5.758;2022-11-18T03:03:29;8.70;99.90
43858;DHT22;29507;51.284;5.758;2022-11-18T03:08:36;8.70;99.90
43858;DHT22;29507;51.284;5.758;2022-11-18T03:11:14;8.80;99.90
43858;DHT22;29507;51.284;5.758;2022-11-18T03:16:37;8.80;99.90
43858;DHT22;29507;51.284;5.758;2022-11-18T03:19:13;8.70;99.90
43858;DHT22;29507;51.284;5.758;2022-11-18T03:24:58;8.70;99.90
43858;DHT22;29507;51.284;5.758;2022-11-18T03:27:40;8.60;99.90
43858;DHT22;29507;51.284;5.758;2022-11-18T03:30:09;8.50;99.90
43858;DHT22;29507;51.284;5.758;2022-11-18T03:32:40;8.50;99.90
43858;DHT22;29507;51.284;5.758;2022-11-18T03:35:23;8.40;99.90
43858;DHT22;29507;51.284;5.758;2022-11-18T03:37:53;8.30;99.90
43858;DHT22;29507;51.284;5.758;2022-11-18T03:40:24;8.30;99.90
43858;DHT22;29507;51.284;5.758;2022-11-18T03:43:10;8.20;99.90
43858;DHT22;29507;51.284;5.758;2022-11-18T03:45:45;8.20;99.90
43858;DHT22;29507;51.284;5.758;2022-11-18T03:48:16;8.30;99.90
43858;DHT22;29507;51.284;5.758;2022-11-18T03:50:49;8.30;99.90
43858;DHT22;29507;51.284;5.758;2022-11-18T03:53:18;8.30;99.90
43858;DHT22;29507;51.284;5.758;2022-11-18T03:55:49;8.30;99.90
43858;DHT22;29507;51.284;5.758;2022-11-18T03:58:32;8.30;99.90
43858;DHT22;29507;51.284;5.758;2022-11-18T04:01:20;8.30;99.90
43858;DHT22;29507;51.284;5.758;2022-11-18T04:03:49;8.30;99.90
43858;DHT22;29507;51.284;5.758;2022-11-18T04:06:41;8.40;99.90
43858;DHT22;29507;51.284;5.758;2022-11-18T04:09:19;8.40;99.90
43858;DHT22;29507;51.284;5.758;2022-11-18T04:11:51;8.40;99.90
43858;DHT22;29507;51.284;5.758;2022-11-18T04:14:37;8.40;99.90
43858;DHT22;29507;51.284;5.758;2022-11-18T04:17:12;8.40;99.90
43858;DHT22;29507;51.284;5.758;2022-11-18T04:19:39;8.40;99.90
43858;DHT22;29507;51.284;5.758;2022-11-18T04:22:06;8.40;99.90
43858;DHT22;29507;51.284;5.758;2022-11-18T04:24:31;8.40;99.90
43858;DHT22;29507;51.284;5.758;2022-11-18T04:26:57;8.40;99.90
43858;DHT22;29507;51.284;5.758;2022-11-18T04:29:23;8.30;99.90
43858;DHT22;29507;51.284;5.758;2022-11-18T04:31:48;8.40;99.90
43858;DHT22;29507;51.284;5.758;2022-11-18T04:34:14;8.40;99.90
43858;DHT22;29507;51.284;5.758;2022-11-18T04:36:40;8.40;99.90
43858;DHT22;29507;51.284;5.758;2022-11-18T04:39:05;8.30;99.90
43858;DHT22;29507;51.284;5.758;2022-11-18T04:41:31;8.40;99.90
43858;DHT22;29507;51.284;5.758;2022-11-18T04:44:16;8.30;99.90
43858;DHT22;29507;51.284;5.758;2022-11-18T04:46:42;8.30;99.90
43858;DHT22;29507;51.284;5.758;2022-11-18T04:49:08;8.30;99.90
43858;DHT22;29507;51.284;5.758;2022-11-18T04:51:35;8.30;99.90
43858;DHT22;29507;51.284;5.758;2022-11-18T04:54:02;8.20;99.90
43858;DHT22;29507;51.284;5.758;2022-11-18T04:56:27;8.20;99.90
43858;DHT22;29507;51.284;5.758;2022-11-18T04:58:53;8.10;99.90
43858;DHT22;29507;51.284;5.758;2022-11-18T05:01:19;8.00;99.90
43858;DHT22;29507;51.284;5.758;2022-11-18T05:03:44;8.00;99.90
43858;DHT22;29507;51.284;5.758;2022-11-18T05:06:10;7.80;99.90
43858;DHT22;29507;51.284;5.758;2022-11-18T05:08:35;7.80;99.90
43858;DHT22;29507;51.284;5.758;2022-11-18T05:11:05;7.70;99.90
43858;DHT22;29507;51.284;5.758;2022-11-18T05:13:49;7.60;99.90
43858;DHT22;29507;51.284;5.758;2022-11-18T05:16:15;7.50;99.90
43858;DHT22;29507;51.284;5.758;2022-11-18T05:18:40;7.50;99.90
43858;DHT22;29507;51.284;5.758;2022-11-18T05:21:06;7.50;99.90
43858;DHT22;29507;51.284;5.758;2022-11-18T05:23:32;7.50;99.90
43858;DHT22;29507;51.284;5.758;2022-11-18T05:26:05;7.50;99.90
43858;DHT22;29507;51.284;5.758;2022-11-18T05:28:30;7.50;99.90
43858;DHT22;29507;51.284;5.758;2022-11-18T05:30:56;7.50;99.90
43858;DHT22;29507;51.284;5.758;2022-11-18T05:33:22;7.40;99.90
43858;DHT22;29507;51.284;5.758;2022-11-18T05:35:47;7.30;99.90
43858;DHT22;29507;51.284;5.758;2022-11-18T05:38:13;7.20;99.90
43858;DHT22;29507;51.284;5.758;2022-11-18T05:40:41;7.20;99.90
43858;DHT22;29507;51.284;5.758;2022-11-18T05:43:08;7.20;99.90
43858;DHT22;29507;51.284;5.758;2022-11-18T05:45:42;7.10;99.90
43858;DHT22;29507;51.284;5.758;2022-11-18T05:48:08;7.10;99.90
43858;DHT22;29507;51.284;5.758;2022-11-18T05:50:36;7.10;99.90
43858;DHT22;29507;51.284;5.758;2022-11-18T05:53:03;6.90;99.90
43858;DHT22;29507;51.284;5.758;2022-11-18T05:55:36;6.80;99.90
43858;DHT22;29507;51.284;5.758;2022-11-18T05:58:04;6.80;99.90
43858;DHT22;29507;51.284;5.758;2022-11-18T06:00:30;6.80;99.90
43858;DHT22;29507;51.284;5.758;2022-11-18T06:02:56;6.80;99.90
43858;DHT22;29507;51.284;5.758;2022-11-18T06:05:24;6.60;99.90
43858;DHT22;29507;51.284;5.758;2022-11-18T06:07:51;6.60;99.90
43858;DHT22;29507;51.284;5.758;2022-11-18T06:10:26;6.50;99.90
43858;DHT22;29507;51.284;5.758;2022-11-18T06:12:57;6.40;99.90
43858;DHT22;29507;51.284;5.758;2022-11-18T06:15:27;6.50;99.90
43858;DHT22;29507;51.284;5.758;2022-11-18T06:18:07;6.40;99.90
43858;DHT22;29507;51.284;5.758;2022-11-18T06:20:37;6.40;99.90
43858;DHT22;29507;51.284;5.758;2022-11-18T06:23:03;6.40;99.90
43858;DHT22;29507;51.284;5.758;2022-11-18T06:25:29;6.30;99.90
43858;DHT22;29507;51.284;5.758;2022-11-18T06:27:56;6.30;99.90
43858;DHT22;29507;51.284;5.758;2022-11-18T06:30:23;6.20;99.90
43858;DHT22;29507;51.284;5.758;2022-11-18T06:32:49;6.20;99.90
43858;DHT22;29507;51.284;5.758;2022-11-18T06:35:14;6.20;99.90
43858;DHT22;29507;51.284;5.758;2022-11-18T06:37:40;6.20;99.90
43858;DHT22;29507;51.284;5.758;2022-11-18T06:40:06;6.20;99.90
43858;DHT22;29507;51.284;5.758;2022-11-18T06:42:32;6.20;99.90
43858;DHT22;29507;51.284;5.758;2022-11-18T06:45:17;6.10;99.90
43858;DHT22;29507;51.284;5.758;2022-11-18T06:47:42;6.20;99.90
43858;DHT22;29507;51.284;5.758;2022-11-18T06:50:08;6.20;99.90
43858;DHT22;29507;51.284;5.758;2022-11-18T06:52:33;6.10;99.90
43858;DHT22;29507;51.284;5.758;2022-11-18T06:54:59;6.00;99.90
43858;DHT22;29507;51.284;5.758;2022-11-18T06:57:25;6.00;99.90
43858;DHT22;29507;51.284;5.758;2022-11-18T06:59:50;6.00;99.90
43858;DHT22;29507;51.284;5.758;2022-11-18T07:02:16;6.00;99.90
43858;DHT22;29507;51.284;5.758;2022-11-18T07:04:44;6.00;99.90
43858;DHT22;29507;51.284;5.758;2022-11-18T07:07:09;6.00;99.90
43858;DHT22;29507;51.284;5.758;2022-11-18T07:09:35;6.00;99.90
43858;DHT22;29507;51.284;5.758;2022-11-18T07:12:02;5.90;99.90
43858;DHT22;29507;51.284;5.758;2022-11-18T07:14:28;5.90;99.90
43858;DHT22;29507;51.284;5.758;2022-11-18T07:16:54;5.90;99.90
43858;DHT22;29507;51.284;5.758;2022-11-18T07:19:19;5.90;99.90
43858;DHT22;29507;51.284;5.758;2022-11-18T07:21:45;5.90;99.90
43858;DHT22;29507;51.284;5.758;2022-11-18T07:24:13;5.90;99.90
43858;DHT22;29507;51.284;5.758;2022-11-18T07:26:39;6.00;99.90
43858;DHT22;29507;51.284;5.758;2022-11-18T07:29:05;6.00;99.90
43858;DHT22;29507;51.284;5.758;2022-11-18T07:31:30;6.00;99.90
43858;DHT22;29507;51.284;5.758;2022-11-18T07:33:56;6.00;99.90
43858;DHT22;29507;51.284;5.758;2022-11-18T07:36:27;6.00;99.90
43858;DHT22;29507;51.284;5.758;2022-11-18T07:38:53;6.10;99.90
43858;DHT22;29507;51.284;5.758;2022-11-18T07:41:21;6.20;99.90
43858;DHT22;29507;51.284;5.758;2022-11-18T07:43:49;6.20;99.90
43858;DHT22;29507;51.284;5.758;2022-11-18T07:46:18;6.20;99.90
43858;DHT22;29507;51.284;5.758;2022-11-18T07:48:46;6.20;99.90
43858;DHT22;29507;51.284;5.758;2022-11-18T07:51:13;6.30;99.90
43858;DHT22;29507;51.284;5.758;2022-11-18T07:53:39;6.30;99.90
43858;DHT22;29507;51.284;5.758;2022-11-18T07:56:06;6.30;99.90
43858;DHT22;29507;51.284;5.758;2022-11-18T07:58:32;6.40;99.90
43858;DHT22;29507;51.284;5.758;2022-11-18T08:00:58;6.40;99.90
43858;DHT22;29507;51.284;5.758;2022-11-18T08:03:30;6.50;99.90
43858;DHT22;29507;51.284;5.758;2022-11-18T08:06:00;6.50;99.90
43858;DHT22;29507;51.284;5.758;2022-11-18T08:08:26;6.60;99.90
43858;DHT22;29507;51.284;5.758;2022-11-18T08:10:59;6.70;99.90
43858;DHT22;29507;51.284;5.758;2022-11-18T08:13:26;6.70;99.90
43858;DHT22;29507;51.284;5.758;2022-11-18T08:15:52;6.80;99.90
43858;DHT22;29507;51.284;5.758;2022-11-18T08:18:18;6.80;99.90
43858;DHT22;29507;51.284;5.758;2022-11-18T08:20:44;6.90;99.90
43858;DHT22;29507;51.284;5.758;2022-11-18T08:23:11;7.00;99.90
43858;DHT22;29507;51.284;5.758;2022-11-18T08:25:37;7.00;99.90
43858;DHT22;29507;51.284;5.758;2022-11-18T08:28:03;7.10;99.90
43858;DHT22;29507;51.284;5.758;2022-11-18T08:30:28;7.10;99.90
43858;DHT22;29507;51.284;5.758;2022-11-18T08:32:54;7.20;99.90
43858;DHT22;29507;51.284;5.758;2022-11-18T08:35:20;7.30;99.90
43858;DHT22;29507;51.284;5.758;2022-11-18T08:37:45;7.40;99.90
43858;DHT22;29507;51.284;5.758;2022-11-18T08:40:11;7.50;99.90
43858;DHT22;29507;51.284;5.758;2022-11-18T08:42:37;7.60;99.90
43858;DHT22;29507;51.284;5.758;2022-11-18T08:45:04;7.70;99.90
43858;DHT22;29507;51.284;5.758;2022-11-18T08:47:33;7.70;99.90
43858;DHT22;29507;51.284;5.758;2022-11-18T08:49:58;7.90;99.90
43858;DHT22;29507;51.284;5.758;2022-11-18T08:52:24;8.00;99.90
43858;DHT22;29507;51.284;5.758;2022-11-18T08:54:50;8.10;99.90
43858;DHT22;29507;51.284;5.758;2022-11-18T08:57:15;8.10;99.90
43858;DHT22;29507;51.284;5.758;2022-11-18T08:59:41;8.20;99.90
43858;DHT22;29507;51.284;5.758;2022-11-18T09:02:14;8.20;99.90
43858;DHT22;29507;51.284;5.758;2022-11-18T09:04:39;8.30;99.90
43858;DHT22;29507;51.284;5.758;2022-11-18T09:07:06;8.40;99.90
43858;DHT22;29507;51.284;5.758;2022-11-18T09:09:31;8.40;99.90
43858;DHT22;29507;51.284;5.758;2022-11-18T09:11:57;8.50;99.90
43858;DHT22;29507;51.284;5.758;2022-11-18T09:14:23;8.60;99.90
43858;DHT22;29507;51.284;5.758;2022-11-18T09:16:48;8.60;99.90
43858;DHT22;29507;51.284;5.758;2022-11-18T09:19:15;8.70;99.90
43858;DHT22;29507;51.284;5.758;2022-11-18T09:21:41;8.70;99.90
43858;DHT22;29507;51.284;5.758;2022-11-18T09:24:07;8.80;99.90
43858;DHT22;29507;51.284;5.758;2022-11-18T09:26:33;8.90;99.90
43858;DHT22;29507;51.284;5.758;2022-11-18T09:28:59;9.00;99.90
43858;DHT22;29507;51.284;5.758;2022-11-18T09:31:25;9.00;99.90
43858;DHT22;29507;51.284;5.758;2022-11-18T09:33:50;9.10;99.90
43858;DHT22;29507;51.284;5.758;2022-11-18T09:36:23;9.10;99.90
43858;DHT22;29507;51.284;5.758;2022-11-18T09:38:50;9.20;99.90
43858;DHT22;29507;51.284;5.758;2022-11-18T09:49:09;9.40;99.90
43858;DHT22;29507;51.284;5.758;2022-11-18T09:51:44;9.50;99.90
43858;DHT22;29507;51.284;5.758;2022-11-18T09:54:29;9.50;99.90
43858;DHT22;29507;51.284;5.758;2022-11-18T09:56:55;9.60;99.90
43858;DHT22;29507;51.284;5.758;2022-11-18T09:59:24;9.90;99.90
43858;DHT22;29507;51.284;5.758;2022-11-18T10:01:54;10.60;99.90
43858;DHT22;29507;51.284;5.758;2022-11-18T10:04:21;11.50;99.90
43858;DHT22;29507;51.284;5.758;2022-11-18T10:06:48;11.90;99.90
43858;DHT22;29507;51.284;5.758;2022-11-18T10:09:21;11.30;99.90
43858;DHT22;29507;51.284;5.758;2022-11-18T10:15:32;10.60;99.90
43858;DHT22;29507;51.284;5.758;2022-11-18T10:24:21;10.40;99.90
43858;DHT22;29507;51.284;5.758;2022-11-18T10:26:54;10.40;99.90
43858;DHT22;29507;51.284;5.758;2022-11-18T10:29:20;10.50;99.90
43858;DHT22;29507;51.284;5.758;2022-11-18T10:32:03;10.70;99.90
43858;DHT22;29507;51.284;5.758;2022-11-18T10:34:31;10.90;99.90
43858;DHT22;29507;51.284;5.758;2022-11-18T10:39:24;11.10;99.90
43858;DHT22;29507;51.284;5.758;2022-11-18T10:41:57;11.00;99.90
43858;DHT22;29507;51.284;5.758;2022-11-18T10:47:20;11.20;99.90
43858;DHT22;29507;51.284;5.758;2022-11-18T10:49:47;11.20;99.90
43858;DHT22;29507;51.284;5.758;2022-11-18T10:52:13;11.30;99.90
43858;DHT22;29507;51.284;5.758;2022-11-18T10:54:40;11.30;99.90
43858;DHT22;29507;51.284;5.758;2022-11-18T10:59:41;11.50;99.90
43858;DHT22;29507;51.284;5.758;2022-11-18T11:02:29;11.40;99.90
43858;DHT22;29507;51.284;5.758;2022-11-18T11:04:57;11.30;99.90
43858;DHT22;29507;51.284;5.758;2022-11-18T11:12:36;11.10;99.90
43858;DHT22;29507;51.284;5.758;2022-11-18T11:17:30;11.10;99.90
43858;DHT22;29507;51.284;5.758;2022-11-18T11:22:27;11.10;99.90
43858;DHT22;29507;51.284;5.758;2022-11-18T11:24:54;11.00;99.90
43858;DHT22;29507;51.284;5.758;2022-11-18T11:27:37;11.10;99.90
43858;DHT22;29507;51.284;5.758;2022-11-18T11:30:21;11.10;99.90
43858;DHT22;29507;51.284;5.758;2022-11-18T11:35:26;11.10;99.90
43858;DHT22;29507;51.284;5.758;2022-11-18T11:48:56;11.20;99.90
43858;DHT22;29507;51.284;5.758;2022-11-18T11:51:39;11.30;99.90
43858;DHT22;29507;51.284;5.758;2022-11-18T12:00:03;11.60;99.90
43858;DHT22;29507;51.284;5.758;2022-11-18T12:02:36;11.60;99.90
43858;DHT22;29507;51.284;5.758;2022-11-18T12:29:56;12.00;99.90
43858;DHT22;29507;51.284;5.758;2022-11-18T12:32:39;12.00;99.90
43858;DHT22;29507;51.284;5.758;2022-11-18T12:35:23;12.00;99.90
43858;DHT22;29507;51.284;5.758;2022-11-18T12:40:38;12.00;99.90
43858;DHT22;29507;51.284;5.758;2022-11-18T12:51:47;12.00;99.90
43858;DHT22;29507;51.284;5.758;2022-11-18T12:54:21;12.50;99.90
43858;DHT22;29507;51.284;5.758;2022-11-18T12:56:48;12.50;99.90
43858;DHT22;29507;51.284;5.758;2022-11-18T12:59:15;12.30;99.90
43858;DHT22;29507;51.284;5.758;2022-11-18T13:01:41;12.20;99.90
43858;DHT22;29507;51.284;5.758;2022-11-18T13:04:15;12.20;99.90
43858;DHT22;29507;51.284;5.758;2022-11-18T13:06:42;12.00;99.90
43858;DHT22;29507;51.284;5.758;2022-11-18T13:09:17;12.00;99.90
43858;DHT22;29507;51.284;5.758;2022-11-18T13:11:50;11.80;99.90
43858;DHT22;29507;51.284;5.758;2022-11-18T13:14:24;11.70;99.90
43858;DHT22;29507;51.284;5.758;2022-11-18T13:20:37;11.50;99.90
43858;DHT22;29507;51.284;5.758;2022-11-18T13:23:14;11.50;99.90
43858;DHT22;29507;51.284;5.758;2022-11-18T13:26:22;11.40;99.90
43858;DHT22;29507;51.284;5.758;2022-11-18T13:31:55;11.30;99.90
43858;DHT22;29507;51.284;5.758;2022-11-18T13:34:25;11.40;99.90
43858;DHT22;29507;51.284;5.758;2022-11-18T13:36:53;11.40;99.90
43858;DHT22;29507;51.284;5.758;2022-11-18T13:39:28;11.40;99.90
43858;DHT22;29507;51.284;5.758;2022-11-18T13:42:06;11.40;99.90
43858;DHT22;29507;51.284;5.758;2022-11-18T13:44:37;11.40;99.90
43858;DHT22;29507;51.284;5.758;2022-11-18T13:47:19;11.40;99.90
43858;DHT22;29507;51.284;5.758;2022-11-18T13:52:35;11.30;99.90
43858;DHT22;29507;51.284;5.758;2022-11-18T13:55:08;11.30;99.90
43858;DHT22;29507;51.284;5.758;2022-11-18T13:57:38;11.30;99.90
43858;DHT22;29507;51.284;5.758;2022-11-18T14:00:18;11.30;99.90
43858;DHT22;29507;51.284;5.758;2022-11-18T14:02:58;11.30;99.90
43858;DHT22;29507;51.284;5.758;2022-11-18T14:05:25;11.20;99.90
43858;DHT22;29507;51.284;5.758;2022-11-18T14:08:05;11.20;99.90
43858;DHT22;29507;51.284;5.758;2022-11-18T14:10:40;11.20;99.90
43858;DHT22;29507;51.284;5.758;2022-11-18T14:13:22;11.20;99.90
43858;DHT22;29507;51.284;5.758;2022-11-18T14:15:48;11.20;99.90
43858;DHT22;29507;51.284;5.758;2022-11-18T14:18:28;11.10;99.90
43858;DHT22;29507;51.284;5.758;2022-11-18T14:20:55;11.10;99.90
43858;DHT22;29507;51.284;5.758;2022-11-18T14:23:29;11.00;99.90
43858;DHT22;29507;51.284;5.758;2022-11-18T14:25:56;10.90;99.90
43858;DHT22;29507;51.284;5.758;2022-11-18T14:28:27;10.90;99.90
43858;DHT22;29507;51.284;5.758;2022-11-18T14:33:37;10.70;99.90
43858;DHT22;29507;51.284;5.758;2022-11-18T14:36:14;10.50;99.90
43858;DHT22;29507;51.284;5.758;2022-11-18T14:38:46;10.30;99.90
43858;DHT22;29507;51.284;5.758;2022-11-18T14:41:14;10.10;99.90
43858;DHT22;29507;51.284;5.758;2022-11-18T14:43:41;10.00;99.90
43858;DHT22;29507;51.284;5.758;2022-11-18T14:46:19;9.80;99.90
43858;DHT22;29507;51.284;5.758;2022-11-18T14:48:46;9.70;99.90
43858;DHT22;29507;51.284;5.758;2022-11-18T14:51:18;9.60;99.90
43858;DHT22;29507;51.284;5.758;2022-11-18T14:53:43;9.50;99.90
43858;DHT22;29507;51.284;5.758;2022-11-18T14:56:35;9.40;99.90
43858;DHT22;29507;51.284;5.758;2022-11-18T14:59:01;9.30;99.90
43858;DHT22;29507;51.284;5.758;2022-11-18T15:01:26;9.20;99.90
43858;DHT22;29507;51.284;5.758;2022-11-18T15:03:53;9.20;99.90
43858;DHT22;29507;51.284;5.758;2022-11-18T15:06:20;9.20;99.90
43858;DHT22;29507;51.284;5.758;2022-11-18T15:08:48;9.20;99.90
43858;DHT22;29507;51.284;5.758;2022-11-18T15:11:14;9.20;99.90
43858;DHT22;29507;51.284;5.758;2022-11-18T15:13:40;9.10;99.90
43858;DHT22;29507;51.284;5.758;2022-11-18T15:16:16;9.00;99.90
43858;DHT22;29507;51.284;5.758;2022-11-18T15:18:43;8.90;99.90
43858;DHT22;29507;51.284;5.758;2022-11-18T15:21:09;8.90;99.90
43858;DHT22;29507;51.284;5.758;2022-11-18T15:23:36;8.70;99.90
43858;DHT22;29507;51.284;5.758;2022-11-18T15:26:02;8.60;99.90
43858;DHT22;29507;51.284;5.758;2022-11-18T15:28:36;8.50;99.90
43858;DHT22;29507;51.284;5.758;2022-11-18T15:31:01;8.40;99.90
43858;DHT22;29507;51.284;5.758;2022-11-18T15:33:27;8.30;99.90
43858;DHT22;29507;51.284;5.758;2022-11-18T15:35:53;8.30;99.90
43858;DHT22;29507;51.284;5.758;2022-11-18T15:38:18;8.20;99.90
43858;DHT22;29507;51.284;5.758;2022-11-18T15:40:44;8.20;99.90
43858;DHT22;29507;51.284;5.758;2022-11-18T15:43:09;8.10;99.90
43858;DHT22;29507;51.284;5.758;2022-11-18T15:45:35;8.10;99.90
43858;DHT22;29507;51.284;5.758;2022-11-18T15:48:00;8.10;99.90
43858;DHT22;29507;51.284;5.758;2022-11-18T15:50:26;8.10;99.90
43858;DHT22;29507;51.284;5.758;2022-11-18T15:52:51;8.20;99.90
43858;DHT22;29507;51.284;5.758;2022-11-18T15:55:19;8.20;99.90
43858;DHT22;29507;51.284;5.758;2022-11-18T15:57:45;8.20;99.90
43858;DHT22;29507;51.284;5.758;2022-11-18T16:00:11;8.20;99.90
43858;DHT22;29507;51.284;5.758;2022-11-18T16:02:37;8.20;99.90
43858;DHT22;29507;51.284;5.758;2022-11-18T16:05:02;8.20;99.90
43858;DHT22;29507;51.284;5.758;2022-11-18T16:07:28;8.20;99.90
43858;DHT22;29507;51.284;5.758;2022-11-18T16:09:54;8.20;99.90
43858;DHT22;29507;51.284;5.758;2022-11-18T16:12:38;8.20;99.90
43858;DHT22;29507;51.284;5.758;2022-11-18T16:15:14;8.20;99.90
43858;DHT22;29507;51.284;5.758;2022-11-18T16:17:58;8.20;99.90
43858;DHT22;29507;51.284;5.758;2022-11-18T16:20:25;8.20;99.90
43858;DHT22;29507;51.284;5.758;2022-11-18T16:22:50;8.20;99.90
43858;DHT22;29507;51.284;5.758;2022-11-18T16:25:21;8.20;99.90
43858;DHT22;29507;51.284;5.758;2022-11-18T16:27:47;8.20;99.90
43858;DHT22;29507;51.284;5.758;2022-11-18T16:30:13;8.20;99.90
43858;DHT22;29507;51.284;5.758;2022-11-18T16:32:58;8.20;99.90
43858;DHT22;29507;51.284;5.758;2022-11-18T16:35:25;8.20;99.90
43858;DHT22;29507;51.284;5.758;2022-11-18T16:37:52;8.20;99.90
43858;DHT22;29507;51.284;5.758;2022-11-18T16:40:18;8.20;99.90
43858;DHT22;29507;51.284;5.758;2022-11-18T16:42:46;8.20;99.90
43858;DHT22;29507;51.284;5.758;2022-11-18T16:45:12;8.20;99.90
43858;DHT22;29507;51.284;5.758;2022-11-18T16:47:37;8.20;99.90
43858;DHT22;29507;51.284;5.758;2022-11-18T16:50:03;8.20;99.90
43858;DHT22;29507;51.284;5.758;2022-11-18T16:52:29;8.20;99.90
43858;DHT22;29507;51.284;5.758;2022-11-18T16:54:54;8.20;99.90
43858;DHT22;29507;51.284;5.758;2022-11-18T16:57:20;8.20;99.90
43858;DHT22;29507;51.284;5.758;2022-11-18T16:59:46;8.20;99.90
43858;DHT22;29507;51.284;5.758;2022-11-18T17:02:13;8.20;99.90
43858;DHT22;29507;51.284;5.758;2022-11-18T17:04:39;8.20;99.90
43858;DHT22;29507;51.284;5.758;2022-11-18T17:07:04;8.20;99.90
43858;DHT22;29507;51.284;5.758;2022-11-18T17:09:30;8.20;99.90
43858;DHT22;29507;51.284;5.758;2022-11-18T17:11:56;8.10;99.90
43858;DHT22;29507;51.284;5.758;2022-11-18T17:14:28;8.10;99.90
43858;DHT22;29507;51.284;5.758;2022-11-18T17:16:54;8.10;99.90
43858;DHT22;29507;51.284;5.758;2022-11-18T17:19:21;8.20;99.90
43858;DHT22;29507;51.284;5.758;2022-11-18T17:21:48;8.10;99.90
43858;DHT22;29507;51.284;5.758;2022-11-18T17:24:15;8.20;99.90
43858;DHT22;29507;51.284;5.758;2022-11-18T17:26:41;8.10;99.90
43858;DHT22;29507;51.284;5.758;2022-11-18T17:29:11;8.20;99.90
43858;DHT22;29507;51.284;5.758;2022-11-18T17:31:37;8.20;99.90
43858;DHT22;29507;51.284;5.758;2022-11-18T17:34:03;8.20;99.90
43858;DHT22;29507;51.284;5.758;2022-11-18T17:36:29;8.20;99.90
43858;DHT22;29507;51.284;5.758;2022-11-18T17:38:57;8.10;99.90
43858;DHT22;29507;51.284;5.758;2022-11-18T17:41:24;8.20;99.90
43858;DHT22;29507;51.284;5.758;2022-11-18T17:44:11;8.20;99.90
43858;DHT22;29507;51.284;5.758;2022-11-18T17:46:37;8.20;99.90
43858;DHT22;29507;51.284;5.758;2022-11-18T17:49:04;8.10;99.90
43858;DHT22;29507;51.284;5.758;2022-11-18T17:51:30;8.10;99.90
43858;DHT22;29507;51.284;5.758;2022-11-18T17:53:56;8.10;99.90
43858;DHT22;29507;51.284;5.758;2022-11-18T17:56:22;8.10;99.90
43858;DHT22;29507;51.284;5.758;2022-11-18T17:58:48;8.10;99.90
43858;DHT22;29507;51.284;5.758;2022-11-18T18:01:15;8.10;99.90
43858;DHT22;29507;51.284;5.758;2022-11-18T18:03:41;8.10;99.90
43858;DHT22;29507;51.284;5.758;2022-11-18T18:06:09;8.10;99.90